Dinant, Belgium
Current Conditions -  °F | °C
As of 1:55 PM on Thursday 30 Oct 2014 (Local Time) from EBFS Reporting Station
Broken Clouds Broken Clouds  
Wind Chill: 59°   Ceiling: 14000
Heat Index: 59°   Visibility: 6mi
Dew Point: 55°   Wind: 6mph
Humidity: 88%   Direction: 190°S
Pressure: 30.21"   Gusts: NA
Location:  50.26°N, 4.91°E
Report Text: EBFS 301255Z 19005KT 9999 BKN140 15/13 Q1023 BLU BLU
Loading
Personal Weather Stations






























Interactive Weather Map New forecast layout! Learn more

10-Day Weather Forecast

Advertisements
Track Severe Weather on mobile